createdAt,value
2018-07-14T00:03:28.751Z,6.37
2018-07-14T00:08:24.014Z,11.13
2018-07-14T00:13:18.564Z,6.17
2018-07-14T00:18:13.122Z,7.57
2018-07-14T00:23:08.276Z,7.73
2018-07-14T00:28:02.480Z,5.47
2018-07-14T00:32:56.823Z,9.40
2018-07-14T00:37:51.538Z,7.77
2018-07-14T00:42:46.467Z,7.53
2018-07-14T00:47:41.114Z,5.83
2018-07-14T00:52:36.203Z,13.37
2018-07-14T00:57:30.902Z,8.47
2018-07-14T01:02:25.622Z,7.20
2018-07-14T01:07:19.956Z,9.50
2018-07-14T01:12:14.313Z,8.13
2018-07-14T01:17:08.941Z,8.37
2018-07-14T01:22:03.466Z,8.57
2018-07-14T01:26:58.036Z,6.70
2018-07-14T01:31:52.577Z,8.80
2018-07-14T01:36:47.556Z,9.67
2018-07-14T01:41:42.465Z,8.87
2018-07-14T01:46:37.390Z,13.30
2018-07-14T01:51:31.869Z,11.93
2018-07-14T01:56:26.492Z,9.93
2018-07-14T02:01:21.327Z,7.33
2018-07-14T02:06:15.912Z,9.73
2018-07-14T02:11:10.559Z,8.90
2018-07-14T02:16:05.996Z,9.93
2018-07-14T02:21:00.471Z,10.97
2018-07-14T02:25:55.100Z,8.63
2018-07-14T02:30:49.601Z,6.97
2018-07-14T02:35:44.190Z,9.63
2018-07-14T02:40:38.664Z,7.13
2018-07-14T02:45:33.109Z,10.33
2018-07-14T02:50:27.634Z,10.73
2018-07-14T02:55:23.269Z,8.57
2018-07-14T03:00:18.506Z,9.97
2018-07-14T03:05:13.257Z,8.23
2018-07-14T03:10:07.912Z,9.33
2018-07-14T03:15:02.449Z,11.87
2018-07-14T03:19:57.193Z,14.37
2018-07-14T03:24:51.658Z,10.03
2018-07-14T03:29:46.196Z,11.10
2018-07-14T03:34:40.989Z,13.30
2018-07-14T03:39:35.575Z,10.57
2018-07-14T03:44:30.198Z,10.03
2018-07-14T03:49:24.804Z,10.73
2018-07-14T03:54:19.384Z,9.77
2018-07-14T03:59:14.064Z,11.60
2018-07-14T04:04:08.628Z,10.03
2018-07-14T04:09:02.941Z,11.93
2018-07-14T04:13:57.174Z,15.07
2018-07-14T04:18:51.721Z,12.80
2018-07-14T04:23:46.268Z,15.00
2018-07-14T04:28:40.810Z,10.93
2018-07-14T04:33:35.460Z,10.83
2018-07-14T04:38:29.805Z,10.20
2018-07-14T04:43:24.413Z,14.03
2018-07-14T04:48:19.084Z,10.23
2018-07-14T04:53:13.611Z,11.00
2018-07-14T04:58:08.297Z,9.97
2018-07-14T05:03:02.662Z,13.00
2018-07-14T05:07:57.224Z,11.63
2018-07-14T05:12:51.772Z,12.33
2018-07-14T05:17:46.329Z,12.27
2018-07-14T05:22:40.558Z,15.50
2018-07-14T05:27:35.203Z,11.53
2018-07-14T05:32:29.775Z,10.00
2018-07-14T05:37:24.495Z,8.33
2018-07-14T05:42:18.964Z,7.07
2018-07-14T05:47:13.470Z,10.20
2018-07-14T05:52:08.562Z,8.73
2018-07-14T05:57:04.156Z,10.50
2018-07-14T06:01:59.173Z,8.07
2018-07-14T06:06:54.280Z,8.00
2018-07-14T06:11:48.880Z,9.27
2018-07-14T06:16:44.000Z,8.33
2018-07-14T06:21:40.030Z,8.90
2018-07-14T06:26:34.546Z,11.57
2018-07-14T06:31:31.438Z,7.87
2018-07-14T06:36:26.611Z,10.10
2018-07-14T06:41:24.040Z,8.37
2018-07-14T06:46:19.404Z,9.00
2018-07-14T06:51:14.769Z,11.17
2018-07-14T06:56:09.711Z,10.27
2018-07-14T07:01:05.053Z,8.80
2018-07-14T07:06:00.671Z,7.50
2018-07-14T07:10:57.777Z,7.27
2018-07-14T07:15:53.008Z,9.83
2018-07-14T07:20:48.465Z,8.47
2018-07-14T07:25:43.414Z,9.57
2018-07-14T07:30:39.095Z,7.73
2018-07-14T07:35:34.849Z,12.17
2018-07-14T07:40:30.071Z,8.77
2018-07-14T07:45:26.129Z,11.57
2018-07-14T07:50:20.920Z,9.70
2018-07-14T07:55:16.458Z,11.00
2018-07-14T08:00:11.617Z,10.67
2018-07-14T08:05:06.867Z,11.03
2018-07-14T08:10:02.449Z,10.77
2018-07-14T08:14:58.097Z,7.87
2018-07-14T08:19:54.277Z,9.27
2018-07-14T08:24:49.808Z,11.27
2018-07-14T08:29:44.611Z,11.20
2018-07-14T08:34:40.103Z,10.43
2018-07-14T08:39:34.799Z,9.10
2018-07-14T08:44:30.049Z,9.20
2018-07-14T08:49:25.663Z,9.27
2018-07-14T08:54:21.285Z,10.17
2018-07-14T08:59:16.602Z,10.30
2018-07-14T09:04:11.724Z,11.57
2018-07-14T09:09:08.722Z,8.27
2018-07-14T09:14:03.500Z,7.67
2018-07-14T09:18:58.556Z,5.97
2018-07-14T09:23:53.992Z,7.50
2018-07-14T09:28:49.296Z,10.63
2018-07-14T09:33:45.437Z,8.13
2018-07-14T09:38:42.974Z,10.23
2018-07-14T09:43:38.509Z,10.47
2018-07-14T09:48:33.931Z,5.40
2018-07-14T09:53:29.663Z,13.20
2018-07-14T09:58:24.985Z,7.67
2018-07-14T10:03:21.451Z,11.77
2018-07-14T10:08:17.092Z,10.23
2018-07-14T10:13:12.107Z,9.30
2018-07-14T10:18:08.015Z,12.90
2018-07-14T10:23:04.484Z,7.80
2018-07-14T10:27:59.525Z,11.80
2018-07-14T10:32:55.092Z,13.10
2018-07-14T10:37:50.290Z,10.93
2018-07-14T10:42:45.160Z,7.87
2018-07-14T10:47:40.161Z,13.07
2018-07-14T10:52:35.492Z,12.87
2018-07-14T10:57:30.618Z,8.73
2018-07-14T11:02:30.081Z,9.20
2018-07-14T11:07:28.184Z,7.43
2018-07-14T11:12:23.068Z,8.07
2018-07-14T11:17:17.970Z,7.93
2018-07-14T11:22:12.824Z,11.10
2018-07-14T11:27:07.649Z,9.77
2018-07-14T11:32:02.738Z,12.20
2018-07-14T11:36:57.898Z,11.43
2018-07-14T11:41:52.876Z,10.33
2018-07-14T11:46:47.660Z,10.80
2018-07-14T11:51:42.741Z,11.00
2018-07-14T11:56:37.476Z,11.00
2018-07-14T12:01:32.281Z,12.50
2018-07-14T12:06:28.122Z,10.47
2018-07-14T12:11:23.156Z,7.67
2018-07-14T12:16:17.900Z,11.97
2018-07-14T12:21:12.693Z,10.43
2018-07-14T12:26:07.202Z,12.47
2018-07-14T12:31:01.926Z,11.10
2018-07-14T12:35:56.843Z,7.70
2018-07-14T12:40:51.883Z,10.13
2018-07-14T12:45:47.473Z,9.50
2018-07-14T12:50:43.236Z,8.63
2018-07-14T12:55:38.274Z,10.47
2018-07-14T13:00:34.025Z,12.90
2018-07-14T13:05:30.726Z,11.33
2018-07-14T13:10:26.402Z,9.30
2018-07-14T13:15:21.856Z,10.20
2018-07-14T13:20:17.141Z,10.53
2018-07-14T13:25:12.189Z,11.00
2018-07-14T13:30:07.213Z,12.13
2018-07-14T13:35:02.726Z,7.77
2018-07-14T13:39:57.912Z,9.27
2018-07-14T13:44:55.052Z,7.97
2018-07-14T13:49:50.281Z,10.07
2018-07-14T13:54:45.229Z,8.07
2018-07-14T13:59:40.142Z,7.83
2018-07-14T14:04:36.250Z,9.23
2018-07-14T14:09:31.651Z,12.37
2018-07-14T14:14:27.362Z,6.43
2018-07-14T14:19:22.438Z,9.23
2018-07-14T14:24:17.881Z,6.73
2018-07-14T14:29:12.792Z,5.20
2018-07-14T14:34:07.780Z,4.97
2018-07-14T14:39:02.629Z,6.70
2018-07-14T14:43:57.346Z,7.53
2018-07-14T14:48:52.164Z,6.43
2018-07-14T14:53:46.952Z,5.77
2018-07-14T14:58:41.719Z,3.37
2018-07-14T15:03:36.655Z,4.23
2018-07-14T15:08:32.036Z,3.47
2018-07-14T15:13:26.829Z,4.33
2018-07-14T15:18:21.472Z,6.57
2018-07-14T15:23:16.396Z,5.97
2018-07-14T15:28:11.168Z,4.27
2018-07-14T15:33:06.735Z,4.83
2018-07-14T15:38:02.023Z,3.03
2018-07-14T15:42:58.731Z,4.07
2018-07-14T15:47:54.730Z,3.57
2018-07-14T15:52:50.149Z,3.63
2018-07-14T15:57:44.666Z,6.07
2018-07-14T16:02:40.189Z,2.70
2018-07-14T16:07:37.982Z,2.53
2018-07-14T16:12:33.683Z,3.20
2018-07-14T16:17:28.650Z,3.27
2018-07-14T16:22:23.723Z,2.57
2018-07-14T16:27:19.246Z,4.17
2018-07-14T16:32:15.225Z,2.63
2018-07-14T16:37:10.081Z,3.83
2018-07-14T16:42:04.845Z,4.13
2018-07-14T16:46:59.951Z,3.80
2018-07-14T16:51:57.848Z,2.45
2018-07-14T16:56:52.793Z,2.43
2018-07-14T17:01:47.601Z,3.47
2018-07-14T17:06:42.400Z,3.60
2018-07-14T17:11:37.425Z,3.50
2018-07-14T17:16:32.380Z,3.07
2018-07-14T17:21:27.064Z,3.00
2018-07-14T17:26:22.167Z,3.87
2018-07-14T17:31:17.443Z,3.30
2018-07-14T17:36:12.089Z,3.83
2018-07-14T17:41:07.715Z,4.60
2018-07-14T17:46:02.542Z,2.77
2018-07-14T17:50:57.034Z,6.43
2018-07-14T17:55:51.638Z,2.80
2018-07-14T18:00:46.146Z,3.27
2018-07-14T18:05:40.702Z,2.80
2018-07-14T18:10:35.006Z,3.43
2018-07-14T18:15:29.248Z,4.00
2018-07-14T18:20:23.771Z,3.00
2018-07-14T18:25:18.432Z,4.63
2018-07-14T18:30:13.463Z,5.47
2018-07-14T18:35:07.936Z,3.37
2018-07-14T18:40:12.148Z,4.77
2018-07-14T18:45:06.909Z,7.93
2018-07-14T18:50:11.136Z,4.03
2018-07-14T18:55:20.670Z,3.60
2018-07-14T19:00:14.898Z,4.23
2018-07-14T19:05:09.410Z,5.07
2018-07-14T19:10:03.913Z,5.60
2018-07-14T19:14:58.764Z,6.73
2018-07-14T19:19:53.416Z,6.13
2018-07-14T19:24:47.703Z,6.37
2018-07-14T19:29:42.170Z,5.53
2018-07-14T19:34:36.667Z,7.57
2018-07-14T19:39:31.243Z,5.67
2018-07-14T19:44:25.790Z,11.07
2018-07-14T19:49:20.331Z,4.50
2018-07-14T19:54:15.123Z,6.67
2018-07-14T19:59:09.606Z,8.37
2018-07-14T20:04:04.078Z,3.97
2018-07-14T20:08:58.579Z,5.17
2018-07-14T20:13:53.238Z,9.07
2018-07-14T20:18:47.898Z,6.27
2018-07-14T20:23:53.735Z,6.43
2018-07-14T20:28:58.361Z,5.37
2018-07-14T20:33:54.259Z,4.53
2018-07-14T20:38:49.408Z,6.60
2018-07-14T20:43:44.901Z,6.57
2018-07-14T20:48:39.605Z,4.90
2018-07-14T20:53:34.653Z,6.67
2018-07-14T20:58:31.164Z,4.80
2018-07-14T21:03:27.991Z,5.97
2018-07-14T21:08:23.575Z,5.07
2018-07-14T21:13:18.197Z,7.37
2018-07-14T21:18:12.938Z,4.33
2018-07-14T21:23:08.363Z,4.13
2018-07-14T21:28:02.818Z,6.57
2018-07-14T21:32:57.824Z,4.83
2018-07-14T21:37:53.403Z,4.53
2018-07-14T21:42:48.768Z,5.23
2018-07-14T21:47:44.067Z,6.13
2018-07-14T21:52:39.301Z,4.80
2018-07-14T21:57:35.039Z,4.07
2018-07-14T22:02:29.635Z,3.50
2018-07-14T22:07:24.632Z,4.00
2018-07-14T22:12:19.658Z,7.03
2018-07-14T22:17:15.002Z,4.00
2018-07-14T22:22:10.317Z,6.07
2018-07-14T22:27:05.643Z,4.60
2018-07-14T22:32:00.249Z,4.30
2018-07-14T22:36:55.387Z,6.90
2018-07-14T22:41:50.050Z,3.47
2018-07-14T22:46:45.565Z,4.57
2018-07-14T22:51:41.408Z,6.30
2018-07-14T22:56:36.707Z,6.20
2018-07-14T23:01:32.199Z,4.53
2018-07-14T23:06:26.773Z,6.13
2018-07-14T23:11:21.792Z,5.77
2018-07-14T23:16:16.893Z,4.97
2018-07-14T23:21:11.449Z,5.90
2018-07-14T23:26:06.140Z,5.67
2018-07-14T23:31:01.297Z,4.97
2018-07-14T23:35:58.090Z,6.03
2018-07-14T23:40:52.960Z,6.03
2018-07-14T23:45:48.432Z,4.43
2018-07-14T23:50:43.170Z,4.67
2018-07-14T23:55:40.177Z,4.23
